Time;durP1;ratioP1;P1;durP2;ratioP2;P2;SDS_P1;SDS_P2;PMS_P1;PMS_P2;Temp;Humidity;BMP_temperature;BMP_pressure;BME280_temperature;BME280_humidity;BME280_pressure;Samples;Min_cycle;Max_cycle;Signal;HPM_P1;HPM_P2
2022/07/03 00:02:20;;;;;;;1.72;0.50;;;;;;;15.82;100.00;100099.73;1712515;81;21036;-56
2022/07/03 00:04:47;;;;;;;3.52;0.45;;;;;;;15.76;100.00;100097.39;1711813;81;21046;-57
2022/07/03 00:07:13;;;;;;;1.27;0.47;;;;;;;15.70;100.00;100093.23;1709223;81;21055;-56
2022/07/03 00:09:40;;;;;;;0.88;0.50;;;;;;;15.66;100.00;100094.87;1685948;83;21154;-57
2022/07/03 00:12:08;;;;;;;1.20;0.42;;;;;;;15.61;100.00;100090.23;1673947;83;21050;-56
2022/07/03 00:14:35;;;;;;;2.17;0.70;;;;;;;15.56;100.00;100095.97;1672383;83;21615;-56
2022/07/03 00:17:01;;;;;;;11.45;1.07;;;;;;;15.54;100.00;100091.59;1674918;83;21129;-56
2022/07/03 00:19:28;;;;;;;2.40;0.50;;;;;;;15.51;100.00;100083.12;1673487;83;22318;-56
2022/07/03 00:22:02;;;;;;;1.87;0.50;;;;;;;15.59;100.00;100081.31;1674698;83;21874;-56
2022/07/03 00:24:46;;;;;;;11.38;1.17;;;;;;;15.65;100.00;100080.94;1671529;83;21042;-56
2022/07/03 00:27:12;;;;;;;4.78;0.60;;;;;;;15.70;100.00;100076.95;1671304;83;21535;-56
2022/07/03 00:29:56;;;;;;;5.28;0.60;;;;;;;15.71;100.00;100075.98;1741167;80;21162;-56
2022/07/03 00:32:23;;;;;;;4.78;0.70;;;;;;;15.72;100.00;100071.43;1721486;80;21093;-55
2022/07/03 00:34:52;;;;;;;9.08;1.17;;;;;;;15.72;100.00;100077.73;1743820;80;21995;-56
2022/07/03 00:37:19;;;;;;;2.70;0.65;;;;;;;15.70;100.00;100075.59;1744360;80;21081;-56
2022/07/03 00:39:46;;;;;;;4.87;0.70;;;;;;;15.65;100.00;100072.28;1743373;79;21338;-57
2022/07/03 00:42:12;;;;;;;3.75;0.70;;;;;;;15.61;100.00;100057.67;1741124;79;21045;-56
2022/07/03 00:44:51;;;;;;;9.23;1.00;;;;;;;15.55;100.00;100072.52;1711468;81;21463;-55
2022/07/03 00:47:20;;;;;;;6.03;0.65;;;;;;;15.46;100.00;100064.92;1740571;80;21557;-55
2022/07/03 00:49:49;;;;;;;1.50;0.68;;;;;;;15.46;100.00;100064.92;1742329;80;22326;-56
2022/07/03 00:52:17;;;;;;;2.83;0.60;;;;;;;15.41;100.00;100062.48;1713147;81;21097;-55
2022/07/03 00:54:59;;;;;;;5.45;0.80;;;;;;;15.43;100.00;100063.27;1709687;81;21144;-55
2022/07/03 00:57:28;;;;;;;6.53;1.00;;;;;;;15.43;100.00;100062.39;1719287;81;21081;-55
2022/07/03 00:59:55;;;;;;;3.08;0.80;;;;;;;15.43;100.00;100062.39;1732721;81;22138;-55
2022/07/03 01:02:44;;;;;;;3.30;0.70;;;;;;;15.37;100.00;100072.28;1734924;81;21046;-55
2022/07/03 01:05:31;;;;;;;6.58;0.75;;;;;;;15.31;100.00;100068.09;1730730;82;21034;-56
2022/07/03 01:08:31;;;;;;;7.08;0.90;;;;;;;15.25;100.00;100071.67;1683141;83;21231;-54
2022/07/03 01:11:23;;;;;;;4.70;0.62;;;;;;;15.15;100.00;100064.11;1731263;81;21066;-55
2022/07/03 01:14:18;;;;;;;2.15;0.50;;;;;;;15.11;100.00;100064.41;1732975;80;21579;-55
2022/07/03 01:17:05;;;;;;;3.62;0.68;;;;;;;15.05;100.00;100065.67;1732759;82;21453;-55
2022/07/03 01:19:43;;;;;;;2.77;0.60;;;;;;;15.05;100.00;100063.45;1731593;81;21288;-56
2022/07/03 01:22:44;;;;;;;2.12;0.60;;;;;;;15.09;100.00;100058.20;1734363;80;21837;-55
2022/07/03 01:25:39;;;;;;;2.65;0.60;;;;;;;15.13;100.00;100058.42;1731245;81;21577;-54
2022/07/03 01:28:11;;;;;;;2.10;0.80;;;;;;;15.11;100.00;100054.44;1731203;82;21567;-59
2022/07/03 01:30:41;;;;;;;2.60;0.60;;;;;;;15.05;100.00;100053.95;1721114;81;21086;-56
2022/07/03 01:33:11;;;;;;;2.45;0.60;;;;;;;14.96;100.00;100050.45;1727616;81;21114;-55
2022/07/03 01:35:42;;;;;;;5.33;0.90;;;;;;;14.90;100.00;100053.03;1720241;81;20986;-53
2022/07/03 01:38:11;;;;;;;1.75;0.60;;;;;;;14.86;100.00;100053.33;1723085;81;20982;-52
2022/07/03 01:40:41;;;;;;;1.70;0.60;;;;;;;14.82;100.00;100046.34;1726304;81;20978;-52
2022/07/03 01:43:11;;;;;;;0.70;0.50;;;;;;;14.79;100.00;100048.78;1722394;81;20962;-55
2022/07/03 01:45:47;;;;;;;1.40;0.60;;;;;;;14.79;100.00;100050.61;1720651;81;20927;-53
2022/07/03 01:48:13;;;;;;;0.90;0.50;;;;;;;14.78;100.00;100044.80;1720651;81;20891;-53
2022/07/03 01:50:41;;;;;;;1.37;0.60;;;;;;;14.73;100.00;100048.64;1723984;82;21050;-55
2022/07/03 01:53:09;;;;;;;1.32;0.50;;;;;;;14.68;100.00;100050.77;1728266;81;21108;-55
2022/07/03 01:55:38;;;;;;;1.75;0.62;;;;;;;14.65;100.00;100052.30;1725199;81;20934;-55
2022/07/03 01:58:05;;;;;;;2.05;1.15;;;;;;;14.66;100.00;100049.98;1724394;81;20911;-56
2022/07/03 02:01:10;;;;;;;2.08;0.53;;;;;;;14.68;100.00;100051.25;1725535;81;20864;-55
2022/07/03 02:03:41;;;;;;;4.53;0.50;;;;;;;14.73;100.00;100051.35;1723051;81;21452;-55
2022/07/03 02:06:28;;;;;;;4.05;0.45;;;;;;;14.79;100.00;100047.91;1660554;84;21910;-55
2022/07/03 02:09:07;;;;;;;3.65;0.90;;;;;;;14.86;100.00;100048.78;1662347;84;21023;-55
2022/07/03 02:11:39;;;;;;;1.57;0.60;;;;;;;14.91;100.00;100048.01;1719740;81;20908;-55
2022/07/03 02:14:23;;;;;;;5.35;0.60;;;;;;;14.93;100.00;100051.50;1691387;81;20998;-55
2022/07/03 02:17:18;;;;;;;0.82;0.42;;;;;;;14.97;100.00;100054.40;1721832;81;21370;-55
2022/07/03 02:19:57;;;;;;;1.62;0.50;;;;;;;15.02;100.00;100055.00;1722517;81;21107;-55
2022/07/03 02:22:42;;;;;;;3.12;0.40;;;;;;;15.04;100.00;100065.77;1722815;81;21093;-56
2022/07/03 02:25:29;;;;;;;2.15;0.45;;;;;;;15.05;100.00;100062.97;1720018;81;21101;-55
2022/07/03 02:28:16;;;;;;;2.67;0.40;;;;;;;15.02;100.00;100055.00;1726360;81;21347;-56
2022/07/03 02:30:43;;;;;;;2.05;0.40;;;;;;;14.97;100.00;100056.27;1742497;81;20959;-55
2022/07/03 02:33:11;;;;;;;2.22;0.40;;;;;;;14.91;100.00;100059.33;1739905;81;21294;-56
2022/07/03 02:35:37;;;;;;;4.33;0.45;;;;;;;14.89;100.00;100053.13;1739324;81;21044;-56
2022/07/03 02:38:10;;;;;;;1.85;0.40;;;;;;;14.86;100.00;100053.33;1741317;81;21599;-56
2022/07/03 02:41:08;;;;;;;0.80;0.60;;;;;;;14.88;100.00;100037.86;1741929;81;21457;-56
2022/07/03 02:43:51;;;;;;;1.67;0.50;;;;;;;14.92;100.00;100044.81;1740409;80;21065;-56
2022/07/03 02:46:50;;;;;;;1.60;0.40;;;;;;;15.00;100.00;100041.15;1739954;80;21203;-56
2022/07/03 02:49:48;;;;;;;5.90;0.60;;;;;;;15.09;100.00;100046.87;1679295;81;21473;-56
2022/07/03 02:52:52;;;;;;;0.88;0.50;;;;;;;15.15;100.00;100045.13;1742551;81;21469;-56
2022/07/03 02:55:45;;;;;;;0.80;0.40;;;;;;;15.21;100.00;100051.16;1742294;81;21120;-56
2022/07/03 02:58:33;;;;;;;0.80;0.43;;;;;;;15.25;100.00;100047.27;1739853;81;21502;-57
2022/07/03 03:01:19;;;;;;;1.95;0.40;;;;;;;15.27;100.00;100037.20;1738424;80;21233;-55
2022/07/03 03:03:52;;;;;;;1.42;0.42;;;;;;;15.33;100.00;100031.38;1734434;81;21101;-55
2022/07/03 03:06:21;;;;;;;1.92;0.47;;;;;;;15.37;100.00;100038.38;1739800;81;21502;-54
2022/07/03 03:08:49;;;;;;;4.42;0.40;;;;;;;15.46;100.00;100038.66;1744943;81;21533;-55
2022/07/03 03:11:42;;;;;;;2.40;0.50;;;;;;;15.60;100.00;100041.00;1740312;81;21069;-55
2022/07/03 03:14:13;;;;;;;2.45;0.53;;;;;;;15.66;100.00;100036.05;1742289;80;21314;-55
2022/07/03 03:16:47;;;;;;;6.00;0.50;;;;;;;15.71;100.00;100030.33;1737077;81;21042;-55
2022/07/03 03:19:15;;;;;;;1.30;0.40;;;;;;;15.71;100.00;100030.33;1738949;80;21064;-55
2022/07/03 03:21:53;;;;;;;2.00;0.40;;;;;;;15.77;100.00;100034.00;1742686;81;21116;-54
2022/07/03 03:24:19;;;;;;;0.75;0.40;;;;;;;15.81;100.00;100035.08;1740709;80;21045;-56
2022/07/03 03:26:46;;;;;;;5.42;0.60;;;;;;;15.91;100.00;100029.88;1740911;81;21984;-55
2022/07/03 03:29:12;;;;;;;0.98;0.42;;;;;;;16.00;100.00;100027.05;1736350;80;21591;-55
2022/07/03 03:31:38;;;;;;;0.50;0.37;;;;;;;16.11;100.00;100035.36;1720690;80;21524;-55
2022/07/03 03:34:05;;;;;;;3.12;0.30;;;;;;;16.21;100.00;100028.35;1722484;81;21061;-55
2022/07/03 03:36:31;;;;;;;2.15;0.30;;;;;;;16.31;100.00;100036.76;1718736;81;21092;-55
2022/07/03 03:38:58;;;;;;;4.78;0.40;;;;;;;16.41;100.00;100040.61;1725762;81;21287;-56
2022/07/03 03:41:25;;;;;;;3.22;0.30;;;;;;;16.51;100.00;100048.00;1723525;81;21749;-56
2022/07/03 03:43:51;;;;;;;1.17;0.40;;;;;;;16.61;100.00;100040.13;1718094;81;21515;-55
2022/07/03 03:46:17;;;;;;;3.55;0.30;;;;;;;16.71;100.00;100038.53;1719749;81;21113;-55
2022/07/03 03:48:44;;;;;;;3.80;0.37;;;;;;;16.82;100.00;100044.59;1654618;85;21112;-56
2022/07/03 03:51:11;;;;;;;3.15;0.35;;;;;;;16.92;100.00;100042.98;1721968;81;21249;-56
2022/07/03 03:53:37;;;;;;;2.12;0.50;;;;;;;17.03;100.00;100041.72;1722244;81;21122;-56
2022/07/03 03:57:37;;;;;;;4.80;0.53;;;;;;;17.29;100.00;100038.52;1783950;78;28772;-54
2022/07/03 04:00:05;;;;;;;1.03;0.30;;;;;;;17.39;100.00;100040.48;1737800;80;20986;-55
2022/07/03 04:02:34;;;;;;;0.53;0.40;;;;;;;17.55;100.00;100042.09;1732321;80;21138;-55
2022/07/03 04:05:00;;;;;;;1.02;0.30;;;;;;;17.70;100.00;100042.36;1729741;80;21530;-55
2022/07/03 04:07:27;;;;;;;0.72;0.40;;;;;;;17.83;100.00;100044.59;1733650;80;21618;-55
2022/07/03 04:09:53;;;;;;;0.57;0.33;;;;;;;17.97;100.00;100036.74;1733677;80;21571;-55
2022/07/03 04:12:20;;;;;;;0.60;0.30;;;;;;;18.10;100.00;100038.95;1732953;80;21049;-55
2022/07/03 04:14:46;;;;;;;0.50;0.30;;;;;;;18.22;100.00;100037.14;1728084;80;21723;-55
2022/07/03 04:17:13;;;;;;;0.40;0.30;;;;;;;18.33;100.00;100027.19;1735687;80;20966;-55
2022/07/03 04:19:39;;;;;;;2.35;0.30;;;;;;;18.44;100.00;100020.44;1731859;80;21045;-55
2022/07/03 04:22:10;;;;;;;2.70;0.40;;;;;;;18.56;100.00;100024.05;1727778;80;21041;-55
2022/07/03 04:24:36;;;;;;;1.37;0.30;;;;;;;18.68;100.00;100017.70;1735273;80;21041;-55
2022/07/03 04:27:04;;;;;;;0.70;0.40;;;;;;;18.79;100.00;100015.52;1730954;80;21792;-54
2022/07/03 04:29:30;;;;;;;0.65;0.45;;;;;;;18.89;100.00;100020.11;1729318;80;21010;-55
2022/07/03 04:31:57;;;;;;;1.50;0.40;;;;;;;19.01;100.00;100018.78;1728318;80;21092;-55
2022/07/03 04:34:23;;;;;;;1.00;0.33;;;;;;;19.12;100.00;100015.59;1735754;80;21396;-56
2022/07/03 04:36:49;;;;;;;0.30;0.30;;;;;;;19.23;100.00;100009.25;1741608;80;21056;-55
2022/07/03 04:39:16;;;;;;;0.40;0.30;;;;;;;19.35;100.00;100016.47;1730137;80;22432;-54
2022/07/03 04:41:42;;;;;;;3.77;0.40;;;;;;;19.46;100.00;100015.12;1735636;80;21060;-56
2022/07/03 04:44:09;;;;;;;1.02;0.30;;;;;;;19.57;100.00;100008.80;1728833;80;21290;-56
2022/07/03 04:46:36;;;;;;;0.85;0.40;;;;;;;19.67;100.00;100006.19;1737419;80;21074;-56
2022/07/03 04:49:04;;;;;;;0.78;0.40;;;;;;;19.77;100.00;100008.05;1731608;80;21065;-56
2022/07/03 04:51:32;;;;;;;1.20;0.30;;;;;;;19.90;100.00;100003.83;1715979;80;21152;-55
2022/07/03 04:53:58;;;;;;;5.65;0.40;;;;;;;20.01;100.00;100011.98;1738093;80;20918;-56
2022/07/03 04:56:25;;;;;;;0.55;0.33;;;;;;;20.14;100.00;100011.84;1734701;80;20941;-54
2022/07/03 04:58:51;;;;;;;1.52;0.40;;;;;;;20.26;100.00;100008.06;1744170;80;20973;-55
2022/07/03 05:01:18;;;;;;;3.50;0.30;;;;;;;20.39;100.00;100002.84;1744143;80;20902;-57
2022/07/03 05:03:44;;;;;;;0.70;0.30;;;;;;;20.52;100.00;100003.16;1743096;80;21209;-56
2022/07/03 05:06:12;;;;;;;1.87;0.30;;;;;;;20.64;100.00;100002.98;1740717;80;21396;-55
2022/07/03 05:08:51;;;;;;;1.40;0.25;;;;;;;20.76;100.00;100001.91;1815016;77;21087;-56
2022/07/03 05:11:18;;;;;;;3.83;0.40;;;;;;;20.87;100.00;100000.98;1808779;77;21506;-58
2022/07/03 05:13:44;;;;;;;0.53;0.37;;;;;;;20.99;100.00;100005.41;1814017;77;21967;-57
2022/07/03 05:16:12;;;;;;;1.77;0.33;;;;;;;21.10;100.00;100003.07;1808279;77;21120;-58
2022/07/03 05:18:38;;;;;;;3.02;0.35;;;;;;;21.21;100.00;99996.19;1816079;77;21016;-57
2022/07/03 05:21:05;;;;;;;6.90;0.40;;;;;;;21.33;100.00;99999.73;1803723;77;21470;-58
2022/07/03 05:23:31;;;;;;;6.80;0.40;;;;;;;21.44;100.00;100000.48;1817460;77;20878;-58
2022/07/03 05:26:00;;;;;;;2.08;0.40;;;;;;;21.59;100.00;100000.14;1813655;77;21569;-58
2022/07/03 05:28:26;;;;;;;2.45;0.45;;;;;;;21.72;100.00;99997.51;1817156;77;22308;-58
2022/07/03 05:30:53;;;;;;;2.20;0.37;;;;;;;21.83;100.00;99996.05;1809828;77;21600;-58
2022/07/03 05:33:19;;;;;;;0.50;0.37;;;;;;;21.98;100.00;99997.04;1813132;77;21083;-56
2022/07/03 05:35:46;;;;;;;1.50;0.30;;;;;;;22.10;100.00;99992.69;1808173;77;22811;-53
2022/07/03 05:38:13;;;;;;;0.68;0.30;;;;;;;22.25;100.00;99986.28;1802164;77;22183;-55
2022/07/03 05:40:40;;;;;;;3.12;0.30;;;;;;;22.37;100.00;99989.23;1810537;77;21084;-60
2022/07/03 05:43:06;;;;;;;0.30;0.30;;;;;;;22.49;100.00;99983.98;1817773;77;21019;-59
2022/07/03 05:45:32;;;;;;;0.40;0.37;;;;;;;22.62;100.00;99979.09;1815234;77;21032;-58
2022/07/03 05:47:59;;;;;;;1.65;0.30;;;;;;;22.73;100.00;99982.66;1806111;77;21020;-58
2022/07/03 05:50:26;;;;;;;2.77;0.35;;;;;;;22.82;100.00;99982.69;1803161;77;21032;-56
2022/07/03 05:52:52;;;;;;;1.47;0.30;;;;;;;22.91;100.00;99984.56;1804754;77;22275;-56
2022/07/03 05:55:19;;;;;;;0.35;0.30;;;;;;;22.97;100.00;99988.59;1816010;77;20981;-56
2022/07/03 05:57:45;;;;;;;0.30;0.30;;;;;;;23.03;100.00;99980.29;1796543;77;21550;-56
2022/07/03 06:00:13;;;;;;;1.27;0.30;;;;;;;23.07;100.00;99986.69;1801883;77;21436;-57
2022/07/03 06:02:39;;;;;;;2.77;0.33;;;;;;;23.11;100.00;99979.04;1797242;77;20956;-56
2022/07/03 06:05:08;;;;;;;3.70;0.30;;;;;;;23.14;100.00;99976.84;1793039;77;21063;-56
2022/07/03 06:07:35;;;;;;;0.60;0.30;;;;;;;23.18;100.00;99979.67;1800293;77;21057;-56
2022/07/03 06:10:01;;;;;;;0.72;0.30;;;;;;;23.20;100.00;99977.64;1805863;77;21002;-56
2022/07/03 06:12:28;;;;;;;0.70;0.40;;;;;;;23.25;100.00;99983.55;1791146;77;21040;-55
2022/07/03 06:14:55;;;;;;;2.90;0.40;;;;;;;23.28;100.00;99979.14;1789980;77;21087;-56
2022/07/03 06:17:22;;;;;;;0.53;0.40;;;;;;;23.29;100.00;99978.13;1798859;77;21123;-55
2022/07/03 06:19:48;;;;;;;3.50;0.50;;;;;;;23.31;100.00;99982.07;1790795;77;21090;-55
2022/07/03 06:22:14;;;;;;;6.95;0.40;;;;;;;23.32;100.00;99982.43;1719701;81;21098;-56
2022/07/03 06:24:41;;;;;;;1.57;0.45;;;;;;;23.32;100.00;99978.31;1781238;78;21074;-55
2022/07/03 06:27:07;;;;;;;6.22;0.37;;;;;;;23.35;100.00;99982.14;1783983;78;21017;-56
2022/07/03 06:29:34;;;;;;;2.47;0.30;;;;;;;23.40;100.00;99979.80;1768781;78;21868;-56
2022/07/03 06:32:00;;;;;;;0.37;0.30;;;;;;;23.43;100.00;99975.89;1768004;78;21057;-58
2022/07/03 06:34:26;;;;;;;2.45;0.30;;;;;;;23.48;100.00;99976.33;1773107;78;21060;-55
2022/07/03 06:36:53;;;;;;;1.37;0.30;;;;;;;23.54;100.00;99978.50;1772298;78;21045;-55
2022/07/03 06:39:19;;;;;;;1.30;0.33;;;;;;;23.59;100.00;99968.77;1773102;78;21064;-55
2022/07/03 06:41:46;;;;;;;1.57;0.40;;;;;;;23.66;100.00;99971.77;1773600;78;21203;-51
2022/07/03 06:44:12;;;;;;;2.17;0.33;;;;;;;23.73;100.00;99964.67;1773858;78;21021;-53
2022/07/03 06:46:39;;;;;;;0.50;0.40;;;;;;;23.80;100.00;99960.30;1777196;78;21018;-57
2022/07/03 06:49:05;;;;;;;2.77;0.40;;;;;;;23.87;100.00;99964.16;1771669;78;21017;-54
2022/07/03 06:51:33;;;;;;;0.60;0.42;;;;;;;23.95;100.00;99964.25;1738782;80;21235;-57
2022/07/03 06:54:01;;;;;;;0.62;0.30;;;;;;;24.03;100.00;99968.97;1709537;81;21498;-56
2022/07/03 06:56:28;;;;;;;1.90;0.40;;;;;;;24.13;100.00;99969.78;1769077;78;21106;-56
2022/07/03 06:58:55;;;;;;;0.40;0.40;;;;;;;24.21;100.00;99971.27;1770594;78;21065;-56
2022/07/03 07:01:21;;;;;;;0.37;0.33;;;;;;;24.31;100.00;99969.83;1773540;78;21120;-55
2022/07/03 07:03:48;;;;;;;0.45;0.40;;;;;;;24.39;100.00;99968.53;1777022;78;21103;-57
2022/07/03 07:06:15;;;;;;;1.20;0.40;;;;;;;24.48;100.00;99971.22;1776452;78;21124;-53
2022/07/03 07:08:43;;;;;;;3.60;0.40;;;;;;;24.58;100.00;99967.52;1773792;78;21072;-55
2022/07/03 07:11:11;;;;;;;1.12;0.40;;;;;;;24.66;100.00;99969.83;1770880;78;21005;-53
2022/07/03 07:13:37;;;;;;;0.82;0.50;;;;;;;24.73;100.00;99961.80;1770602;78;21119;-54
2022/07/03 07:16:06;;;;;;;1.47;0.60;;;;;;;24.79;100.00;99959.27;1769032;78;21395;-53
2022/07/03 07:18:32;;;;;;;2.37;0.50;;;;;;;24.87;100.00;99959.84;1792304;78;21207;-54
2022/07/03 07:20:59;;;;;;;4.97;0.50;;;;;;;24.93;100.00;99962.48;1772316;78;21027;-52
2022/07/03 07:23:25;;;;;;;0.80;0.47;;;;;;;25.00;100.00;99964.97;1778747;78;21025;-55
2022/07/03 07:25:52;;;;;;;3.95;0.50;;;;;;;25.04;100.00;99961.72;1720355;81;21106;-55
2022/07/03 07:28:18;;;;;;;0.75;0.50;;;;;;;25.08;100.00;99956.77;1770857;78;21041;-55
2022/07/03 07:30:45;;;;;;;0.55;0.50;;;;;;;25.11;100.00;99961.94;1771120;78;21467;-52
2022/07/03 07:33:11;;;;;;;0.78;0.55;;;;;;;25.10;100.00;99960.20;1778604;78;21003;-55
2022/07/03 07:35:38;;;;;;;1.60;0.50;;;;;;;25.12;100.00;99955.41;1771910;78;20941;-53
2022/07/03 07:38:05;;;;;;;1.00;0.60;;;;;;;25.13;100.00;99954.38;1787150;78;20901;-58
2022/07/03 07:40:31;;;;;;;1.50;0.50;;;;;;;25.15;100.00;99953.71;1787888;78;20882;-56
2022/07/03 07:42:57;;;;;;;2.25;0.50;;;;;;;25.21;100.00;99953.05;1782912;78;21053;-53
2022/07/03 07:45:24;;;;;;;0.75;0.50;;;;;;;25.25;100.00;99946.20;1781383;78;21356;-55
2022/07/03 07:47:50;;;;;;;1.27;0.50;;;;;;;25.29;100.00;99945.34;1782981;78;20902;-53
2022/07/03 07:50:17;;;;;;;3.30;0.50;;;;;;;25.33;100.00;99948.14;1794547;78;21032;-56
2022/07/03 07:52:43;;;;;;;0.65;0.50;;;;;;;25.39;100.00;99942.83;1777417;78;21052;-57
2022/07/03 07:55:10;;;;;;;1.10;0.55;;;;;;;25.47;100.00;99945.63;1790679;78;22626;-54
2022/07/03 07:57:37;;;;;;;0.78;0.40;;;;;;;25.55;100.00;99947.05;1779918;78;21078;-53
2022/07/03 08:00:12;;;;;;;2.12;0.57;;;;;;;25.63;100.00;99944.88;1780882;78;20879;-55
2022/07/03 08:05:37;;;;;;;7.83;0.60;;;;;;;25.84;100.00;99949.97;1784897;78;21108;-55
2022/07/03 08:08:09;;;;;;;0.68;0.50;;;;;;;25.96;100.00;99941.20;1782146;78;21197;-56
2022/07/03 08:10:49;;;;;;;1.25;0.60;;;;;;;26.06;100.00;99937.44;1779975;78;21025;-56
2022/07/03 08:13:18;;;;;;;1.72;0.55;;;;;;;26.15;100.00;99946.09;1778723;78;21064;-53
2022/07/03 08:15:44;;;;;;;3.67;0.60;;;;;;;26.26;100.00;99941.67;1780418;78;21577;-56
2022/07/03 08:18:11;;;;;;;5.50;0.72;;;;;;;26.36;100.00;99946.52;1781054;78;21717;-55
2022/07/03 08:20:37;;;;;;;2.50;0.70;;;;;;;26.47;100.00;99947.55;1721384;81;21959;-58
2022/07/03 08:23:05;;;;;;;3.58;0.80;;;;;;;26.54;100.00;99952.72;1781885;78;21684;-57
2022/07/03 08:25:33;;;;;;;2.35;0.60;;;;;;;26.61;100.00;99947.41;1783353;78;21029;-53
2022/07/03 08:27:59;;;;;;;1.25;0.90;;;;;;;26.68;100.00;99951.20;1781988;78;21099;-58
2022/07/03 08:30:26;;;;;;;2.92;0.70;;;;;;;26.75;100.00;99950.84;1782537;78;21103;-58
2022/07/03 08:32:55;;;;;;;6.28;0.80;;;;;;;26.78;100.00;99951.03;1785525;78;21120;-57
2022/07/03 08:35:21;;;;;;;0.82;0.70;;;;;;;26.79;100.00;99941.20;1781521;78;21467;-57
2022/07/03 08:37:48;;;;;;;1.20;0.70;;;;;;;26.79;100.00;99948.10;1784489;78;21033;-52
2022/07/03 08:40:15;;;;;;;1.12;0.68;;;;;;;26.77;100.00;99940.50;1786093;78;21048;-55
2022/07/03 08:42:46;;;;;;;1.35;0.70;;;;;;;26.75;100.00;99942.56;1783394;78;21091;-57
2022/07/03 08:45:18;;;;;;;2.62;1.00;;;;;;;26.74;100.00;99944.98;1721822;81;21580;-55
2022/07/03 08:47:46;;;;;;;1.00;0.70;;;;;;;26.73;100.00;99946.01;1783614;78;21015;-53
2022/07/03 08:50:15;;;;;;;1.98;0.70;;;;;;;26.70;100.00;99949.13;1735003;80;21036;-54
2022/07/03 08:52:42;;;;;;;1.70;0.60;;;;;;;26.67;100.00;99945.33;1743664;80;21010;-56
2022/07/03 08:55:09;;;;;;;3.05;0.60;;;;;;;26.67;100.00;99946.70;1744018;80;20951;-57
2022/07/03 08:57:37;;;;;;;2.67;0.70;;;;;;;26.66;100.00;99947.73;1743687;80;21154;-55
2022/07/03 09:00:07;;;;;;;2.10;0.75;;;;;;;26.59;100.00;99943.43;1721195;81;21079;-53
2022/07/03 09:02:34;;;;;;;5.47;1.30;;;;;;;26.52;100.00;99935.50;1783389;78;21005;-55
2022/07/03 09:05:04;;;;;;;4.42;1.40;;;;;;;26.47;100.00;99935.64;1786189;78;21120;-56
2022/07/03 09:07:37;;;;;;;0.88;0.70;;;;;;;26.42;100.00;99933.41;1785284;78;21581;-55
2022/07/03 09:10:04;;;;;;;3.45;0.78;;;;;;;26.39;100.00;99929.60;1781998;78;21831;-53
2022/07/03 09:12:31;;;;;;;3.47;0.70;;;;;;;26.36;100.00;99932.72;1783993;78;21297;-59
2022/07/03 09:14:59;;;;;;;3.83;0.60;;;;;;;26.40;100.00;99934.60;1771932;78;21076;-55
2022/07/03 09:17:27;;;;;;;2.33;0.80;;;;;;;26.46;100.00;99929.77;1769737;78;21104;-53
2022/07/03 09:19:54;;;;;;;4.35;0.70;;;;;;;26.56;100.00;99927.20;1776406;78;21088;-54
2022/07/03 09:22:24;;;;;;;0.70;0.60;;;;;;;26.65;100.00;99927.55;1722777;81;21471;-57
2022/07/03 09:24:53;;;;;;;3.95;0.70;;;;;;;26.74;100.00;99936.69;1772932;78;21028;-57
2022/07/03 09:27:22;;;;;;;1.35;0.80;;;;;;;26.76;100.00;99931.87;1779585;78;20934;-56
2022/07/03 09:30:00;;;;;;;1.62;0.70;;;;;;;26.75;100.00;99928.76;1775750;78;20949;-57
2022/07/03 09:32:42;;;;;;;1.25;0.70;;;;;;;26.78;100.00;99931.19;1771431;78;21674;-54
2022/07/03 09:35:24;;;;;;;1.07;0.70;;;;;;;26.84;100.00;99931.00;1761174;78;21263;-57
2022/07/03 09:37:56;;;;;;;2.12;0.70;;;;;;;26.84;100.00;99941.53;1734689;80;21553;-53
2022/07/03 09:40:24;;;;;;;1.72;0.70;;;;;;;26.83;100.00;99936.17;1779242;78;21515;-53
2022/07/03 09:43:05;;;;;;;3.62;0.70;;;;;;;26.81;100.00;99932.20;1735807;80;21477;-56
2022/07/03 09:45:56;;;;;;;5.08;0.70;;;;;;;26.77;100.00;99931.35;1762863;78;21061;-55
2022/07/03 09:48:44;;;;;;;4.12;0.70;;;;;;;26.71;100.00;99937.06;1772915;78;21888;-53
2022/07/03 09:51:26;;;;;;;1.77;0.80;;;;;;;26.65;100.00;99930.82;1695251;82;21673;-56
2022/07/03 09:54:00;;;;;;;1.25;0.62;;;;;;;26.61;100.00;99930.84;1666835;83;21048;-58
2022/07/03 09:56:35;;;;;;;1.98;0.60;;;;;;;26.57;100.00;99930.31;1672367;83;21089;-57
2022/07/03 09:59:13;;;;;;;0.88;0.60;;;;;;;26.54;100.00;99928.42;1651880;85;21382;-59
2022/07/03 10:01:44;;;;;;;1.62;0.60;;;;;;;26.51;100.00;99930.14;1667561;83;21743;-58
2022/07/03 10:04:22;;;;;;;0.90;0.80;;;;;;;26.48;100.00;99927.20;1646634;85;21112;-58
2022/07/03 10:07:00;;;;;;;0.82;0.60;;;;;;;26.46;100.00;99926.50;1646588;85;20964;-58
2022/07/03 10:09:30;;;;;;;1.85;0.60;;;;;;;26.45;100.00;99933.59;1667631;84;21325;-58
2022/07/03 10:11:57;;;;;;;2.62;0.80;;;;;;;26.41;100.00;99932.20;1669619;84;21107;-57
2022/07/03 10:14:26;;;;;;;1.40;0.80;;;;;;;26.37;100.00;99924.25;1671345;84;21318;-57
2022/07/03 10:16:53;;;;;;;2.25;0.60;;;;;;;26.34;100.00;99935.65;1672230;84;22150;-58
2022/07/03 10:19:23;;;;;;;3.65;0.70;;;;;;;26.33;100.00;99933.05;1675229;83;20941;-57
2022/07/03 10:21:52;;;;;;;2.25;0.72;;;;;;;26.30;100.00;99935.62;1672654;84;21146;-58
2022/07/03 10:24:27;;;;;;;3.02;0.70;;;;;;;26.25;100.00;99929.73;1651469;85;21008;-58
2022/07/03 10:26:54;;;;;;;1.65;0.70;;;;;;;26.22;100.00;99931.95;1642513;85;21136;-58
2022/07/03 10:29:26;;;;;;;2.15;0.60;;;;;;;26.19;100.00;99930.94;1667355;83;21025;-57
2022/07/03 10:31:52;;;;;;;0.80;0.60;;;;;;;26.19;100.00;99942.84;1667283;84;21492;-58
2022/07/03 10:34:23;;;;;;;1.45;0.60;;;;;;;26.18;100.00;99932.83;1673231;84;21859;-57
2022/07/03 10:36:59;;;;;;;0.85;0.60;;;;;;;26.19;100.00;99924.04;1669764;84;21077;-58
2022/07/03 10:39:54;;;;;;;1.25;0.60;;;;;;;26.18;100.00;99924.55;1670688;84;22147;-58
2022/07/03 10:45:15;;;;;;;0.70;0.70;;;;;;;26.15;100.00;99922.13;1669709;83;20976;-58
2022/07/03 10:47:47;;;;;;;3.92;0.80;;;;;;;26.14;100.00;99919.02;1666749;83;21025;-58
2022/07/03 10:50:22;;;;;;;2.75;0.80;;;;;;;26.13;100.00;99921.42;1664364;83;21028;-58
2022/07/03 10:52:49;;;;;;;1.67;0.78;;;;;;;26.10;100.00;99920.91;1663677;84;22532;-57
2022/07/03 10:55:16;;;;;;;2.22;0.60;;;;;;;26.05;100.00;99917.27;1655273;84;20960;-59
2022/07/03 10:57:45;;;;;;;3.83;0.70;;;;;;;25.98;100.00;99921.22;1659513;84;20980;-60
2022/07/03 11:00:14;;;;;;;1.12;0.80;;;;;;;25.93;100.00;99914.50;1654638;84;21435;-59
2022/07/03 11:02:46;;;;;;;2.25;0.80;;;;;;;25.90;100.00;99912.93;1660724;84;21471;-60
2022/07/03 11:05:19;;;;;;;1.07;0.75;;;;;;;25.84;100.00;99914.12;1662605;84;21454;-58
2022/07/03 11:07:58;;;;;;;1.15;0.70;;;;;;;25.79;100.00;99920.63;1658711;84;21028;-59
2022/07/03 11:10:29;;;;;;;2.87;0.72;;;;;;;25.73;100.00;99915.28;1659110;84;21028;-59
2022/07/03 11:13:04;;;;;;;2.55;0.80;;;;;;;25.70;100.00;99911.98;1656056;84;21394;-61
2022/07/03 11:15:50;;;;;;;6.28;0.90;;;;;;;25.65;100.00;99907.50;1658434;84;21155;-58
2022/07/03 11:18:31;;;;;;;5.17;1.00;;;;;;;25.56;100.00;99906.05;1656093;84;21165;-58
2022/07/03 11:21:15;;;;;;;2.20;0.95;;;;;;;25.42;100.00;99902.56;1655152;84;21134;-58
2022/07/03 11:24:10;;;;;;;2.98;0.90;;;;;;;25.24;100.00;99905.91;1659550;84;21159;-58
2022/07/03 11:26:36;;;;;;;1.80;0.90;;;;;;;25.07;100.00;99900.82;1684515;83;21072;-58
2022/07/03 11:29:03;;;;;;;3.47;0.90;;;;;;;24.91;100.00;99898.45;1690978;83;21084;-58
2022/07/03 11:31:30;;;;;;;1.12;0.90;;;;;;;24.81;100.00;99899.41;1688634;83;21257;-58
2022/07/03 11:33:58;;;;;;;2.62;1.00;;;;;;;24.78;100.00;99891.97;1662255;85;21068;-57
2022/07/03 11:36:32;;;;;;;2.22;1.10;;;;;;;24.74;100.00;99887.83;1660785;85;21441;-57
2022/07/03 11:39:05;;;;;;;3.90;1.10;;;;;;;24.68;100.00;99885.70;1664958;85;21127;-58
2022/07/03 11:41:41;;;;;;;1.07;0.98;;;;;;;24.58;100.00;99889.09;1675224;83;21159;-58
2022/07/03 11:44:09;;;;;;;1.85;0.90;;;;;;;24.49;100.00;99888.16;1687926;83;21771;-58
2022/07/03 11:46:37;;;;;;;3.52;1.00;;;;;;;24.41;100.00;99872.96;1685623;83;21009;-58
2022/07/03 11:49:07;;;;;;;2.72;1.00;;;;;;;24.38;100.00;99878.26;1661777;84;21544;-58